Time;durP1;ratioP1;P1;durP2;ratioP2;P2;SDS_P1;SDS_P2;PMS_P1;PMS_P2;Temp;Humidity;BMP_temperature;BMP_pressure;BME280_temperature;BME280_humidity;BME280_pressure;Samples;Min_cycle;Max_cycle;Signal;HPM_P1;HPM_P2
2022/01/11 00:01:45;;;;;;;276.48;19.15;;;0.10;99.90;;;;;;4942643;28;20154;-65
2022/01/11 00:04:13;;;;;;;313.67;20.13;;;0.10;99.90;;;;;;4945695;28;20055;-65
2022/01/11 00:06:47;;;;;;;317.75;18.58;;;0.10;99.90;;;;;;4950149;28;20039;-65
2022/01/11 00:09:22;;;;;;;216.38;16.20;;;0.10;99.90;;;;;;4957096;28;20050;-65
2022/01/11 00:11:50;;;;;;;178.07;14.57;;;0.10;99.90;;;;;;4926536;29;20094;-65
2022/01/11 00:14:16;;;;;;;267.58;17.63;;;0.00;99.90;;;;;;4958416;28;20043;-65
2022/01/11 00:16:42;;;;;;;196.60;14.38;;;0.00;99.90;;;;;;4953288;28;20055;-65
2022/01/11 00:19:09;;;;;;;266.27;17.08;;;0.00;99.90;;;;;;4930957;28;20098;-65
2022/01/11 00:21:39;;;;;;;268.27;16.67;;;-0.10;99.90;;;;;;4951203;28;20554;-65
2022/01/11 00:26:50;;;;;;;264.52;16.30;;;-0.10;99.90;;;;;;4952717;28;20332;-65
2022/01/11 00:29:15;;;;;;;224.40;16.10;;;0.00;99.90;;;;;;4949106;28;20048;-65
2022/01/11 00:31:44;;;;;;;296.75;19.02;;;-0.10;99.90;;;;;;4927001;29;20050;-65
2022/01/11 00:34:10;;;;;;;163.43;15.15;;;-0.10;99.90;;;;;;4957387;28;20207;-65
2022/01/11 00:36:42;;;;;;;154.35;15.43;;;-0.10;99.90;;;;;;4958132;28;20070;-65
2022/01/11 00:39:11;;;;;;;174.27;15.13;;;-0.10;99.90;;;;;;4956370;28;20473;-65
2022/01/11 00:41:41;;;;;;;261.42;17.27;;;-0.10;99.90;;;;;;4950722;28;20058;-65
2022/01/11 00:44:08;;;;;;;193.75;15.70;;;-0.20;99.90;;;;;;4954317;28;20066;-65
2022/01/11 00:46:34;;;;;;;213.63;16.02;;;-0.10;99.90;;;;;;4932805;28;20055;-65
2022/01/11 00:49:00;;;;;;;205.98;15.27;;;-0.20;99.90;;;;;;4955997;28;20058;-65
2022/01/11 00:51:26;;;;;;;187.48;14.82;;;-0.20;99.90;;;;;;4953414;28;20047;-65
2022/01/11 00:53:52;;;;;;;201.35;16.45;;;-0.20;99.90;;;;;;4952197;28;20054;-65
2022/01/11 00:56:18;;;;;;;231.15;17.25;;;-0.30;99.90;;;;;;4934056;28;20490;-65
2022/01/11 00:58:44;;;;;;;209.13;17.60;;;-0.30;99.90;;;;;;4957395;28;20043;-65
2022/01/11 01:01:10;;;;;;;203.18;16.58;;;-0.30;99.90;;;;;;4924811;28;20063;-65
2022/01/11 01:03:36;;;;;;;213.77;17.30;;;-0.20;99.90;;;;;;4944481;28;20046;-66
2022/01/11 01:06:03;;;;;;;195.82;16.38;;;-0.30;99.90;;;;;;4944632;28;20375;-65
2022/01/11 01:08:28;;;;;;;246.07;16.20;;;-0.20;99.90;;;;;;4947868;28;20487;-65
2022/01/11 01:10:54;;;;;;;159.25;14.02;;;-0.20;99.90;;;;;;4947830;28;20138;-65
2022/01/11 01:13:25;;;;;;;196.38;15.02;;;-0.30;99.90;;;;;;4948545;28;20048;-65
2022/01/11 01:15:53;;;;;;;277.70;16.70;;;-0.20;99.90;;;;;;4931106;29;20122;-65
2022/01/11 01:18:22;;;;;;;227.15;15.43;;;-0.20;99.90;;;;;;4953021;28;20038;-65
2022/01/11 01:20:52;;;;;;;260.50;16.75;;;-0.20;99.90;;;;;;4958342;28;20039;-65
2022/01/11 01:23:19;;;;;;;;;;;-0.20;99.90;;;;;;4953131;28;20046;-65
2022/01/11 01:25:46;;;;;;;315.88;16.55;;;-0.20;99.90;;;;;;4948322;28;19927;-65
2022/01/11 01:28:12;;;;;;;218.27;13.57;;;-0.20;99.90;;;;;;4950221;28;20234;-65
2022/01/11 01:30:38;;;;;;;340.20;18.40;;;-0.20;99.90;;;;;;4946039;28;20090;-65
2022/01/11 01:33:05;;;;;;;246.68;13.73;;;-0.20;99.90;;;;;;4947752;28;20035;-65
2022/01/11 01:35:39;;;;;;;177.55;14.73;;;-0.20;99.90;;;;;;4930550;29;20050;-65
2022/01/11 01:38:06;;;;;;;247.95;14.82;;;-0.20;99.90;;;;;;4947833;28;20506;-66
2022/01/11 01:40:38;;;;;;;220.85;13.95;;;-0.20;99.90;;;;;;4947547;28;20046;-65
2022/01/11 01:43:05;;;;;;;260.00;15.82;;;-0.20;99.90;;;;;;4956464;28;20472;-65
2022/01/11 01:45:31;;;;;;;289.67;17.65;;;-0.20;99.90;;;;;;4947337;28;20370;-65
2022/01/11 01:47:58;;;;;;;315.02;19.88;;;-0.10;99.90;;;;;;4950355;28;20049;-65
2022/01/11 01:50:27;;;;;;;289.48;17.10;;;-0.10;99.90;;;;;;4932900;28;20040;-65
2022/01/11 01:52:56;;;;;;;256.15;15.43;;;-0.10;99.90;;;;;;4953250;28;20046;-65
2022/01/11 01:55:22;;;;;;;293.60;18.15;;;-0.10;99.90;;;;;;4936940;28;20074;-65
2022/01/11 01:57:50;;;;;;;335.23;18.08;;;-0.10;99.90;;;;;;4951754;28;20490;-65
2022/01/11 02:00:17;;;;;;;321.73;17.45;;;-0.10;99.90;;;;;;4933038;29;20129;-65
2022/01/11 02:02:42;;;;;;;346.33;18.30;;;-0.10;99.90;;;;;;4950260;28;20051;-65
2022/01/11 02:05:08;;;;;;;360.05;19.15;;;-0.10;99.90;;;;;;4950335;28;20094;-65
2022/01/11 02:07:35;;;;;;;316.73;17.60;;;-0.20;99.90;;;;;;4950270;28;20445;-65
2022/01/11 02:10:03;;;;;;;269.63;17.30;;;-0.20;99.90;;;;;;4949820;28;20043;-65
2022/01/11 02:12:29;;;;;;;294.55;19.20;;;-0.20;99.90;;;;;;4949904;28;20140;-65
2022/01/11 02:14:58;;;;;;;257.45;17.42;;;-0.10;99.90;;;;;;4948132;28;20051;-65
2022/01/11 02:17:28;;;;;;;215.18;16.38;;;-0.20;99.90;;;;;;4950352;28;20041;-65
2022/01/11 02:19:55;;;;;;;311.33;17.35;;;-0.20;99.90;;;;;;4949664;28;20085;-65
2022/01/11 02:22:23;;;;;;;293.27;17.85;;;-0.20;99.90;;;;;;4950238;28;20945;-65
2022/01/11 02:24:49;;;;;;;325.23;16.15;;;-0.20;99.90;;;;;;4948923;28;20046;-65
2022/01/11 02:27:14;;;;;;;292.77;18.00;;;-0.20;99.90;;;;;;4949317;28;20047;-65
2022/01/11 02:29:42;;;;;;;197.75;15.23;;;-0.20;99.90;;;;;;4932296;28;20043;-65
2022/01/11 02:32:08;;;;;;;326.42;16.80;;;-0.20;99.90;;;;;;4933679;28;20529;-65
2022/01/11 02:34:34;;;;;;;254.20;14.65;;;-0.20;99.90;;;;;;4954613;28;20047;-65
2022/01/11 02:36:59;;;;;;;246.10;13.70;;;-0.20;99.90;;;;;;4948855;28;20054;-65
2022/01/11 02:39:25;;;;;;;272.13;15.68;;;-0.20;99.90;;;;;;4932244;29;20055;-65
2022/01/11 02:41:54;;;;;;;248.80;16.27;;;-0.20;99.90;;;;;;4954315;28;20043;-65
2022/01/11 02:44:20;;;;;;;233.10;13.52;;;-0.20;99.90;;;;;;4949291;28;20055;-65
2022/01/11 02:46:46;;;;;;;163.45;13.70;;;-0.20;99.90;;;;;;4949192;28;20035;-65
2022/01/11 02:49:12;;;;;;;273.05;15.55;;;-0.20;99.90;;;;;;4931526;29;20054;-65
2022/01/11 02:51:37;;;;;;;229.70;15.27;;;-0.20;99.90;;;;;;4949576;28;20058;-65
2022/01/11 02:54:05;;;;;;;192.13;13.90;;;-0.20;99.90;;;;;;4947757;28;20130;-65
2022/01/11 02:56:31;;;;;;;248.60;14.98;;;-0.10;99.90;;;;;;4949492;28;20036;-66
2022/01/11 02:58:58;;;;;;;185.52;13.43;;;-0.10;99.90;;;;;;4931899;29;20141;-65
2022/01/11 03:01:24;;;;;;;163.07;12.63;;;-0.20;99.90;;;;;;4950050;28;20324;-65
2022/01/11 03:03:52;;;;;;;232.88;14.05;;;-0.20;99.90;;;;;;4951930;28;20058;-65
2022/01/11 03:06:18;;;;;;;243.88;14.50;;;-0.20;99.90;;;;;;4949632;28;20048;-65
2022/01/11 03:08:48;;;;;;;180.77;14.45;;;-0.20;99.90;;;;;;4947662;28;20498;-65
2022/01/11 03:11:17;;;;;;;184.35;14.88;;;-0.20;99.90;;;;;;4917428;29;20137;-65
2022/01/11 03:13:43;;;;;;;150.63;14.20;;;-0.20;99.90;;;;;;4949741;28;20114;-65
2022/01/11 03:16:13;;;;;;;255.05;17.70;;;-0.10;99.90;;;;;;4944345;29;20451;-65
2022/01/11 03:18:39;;;;;;;211.45;17.60;;;-0.20;99.90;;;;;;4949404;28;20193;-65
2022/01/11 03:21:05;;;;;;;267.15;18.27;;;-0.20;99.90;;;;;;4948484;28;20040;-65
2022/01/11 03:23:33;;;;;;;353.35;19.58;;;-0.10;99.90;;;;;;4948933;28;20051;-65
2022/01/11 03:26:02;;;;;;;286.73;18.25;;;-0.10;99.90;;;;;;4946709;28;20077;-65
2022/01/11 03:28:28;;;;;;;272.55;17.17;;;-0.10;99.90;;;;;;4931520;29;20055;-65
2022/01/11 03:30:54;;;;;;;219.35;17.70;;;-0.10;99.90;;;;;;4948502;28;20580;-65
2022/01/11 03:33:20;;;;;;;229.23;17.38;;;-0.10;99.90;;;;;;4931313;29;20098;-66
2022/01/11 03:35:47;;;;;;;244.20;18.20;;;-0.10;99.90;;;;;;4956539;28;20441;-65
2022/01/11 03:38:14;;;;;;;271.85;18.25;;;-0.10;99.90;;;;;;4950845;28;20062;-65
2022/01/11 03:40:42;;;;;;;245.98;17.40;;;-0.10;99.90;;;;;;4931370;29;20118;-66
2022/01/11 03:43:09;;;;;;;233.93;17.48;;;-0.20;99.90;;;;;;4946987;28;20061;-65
2022/01/11 03:45:35;;;;;;;247.85;17.25;;;-0.20;99.90;;;;;;4946810;28;20054;-65
2022/01/11 03:48:04;;;;;;;171.70;14.88;;;-0.30;99.90;;;;;;4948149;28;20038;-65
2022/01/11 03:50:30;;;;;;;162.05;16.52;;;-0.30;99.90;;;;;;4947309;28;20059;-65
2022/01/11 03:53:08;;;;;;;192.80;17.13;;;-0.40;99.90;;;;;;4949100;28;20113;-65
2022/01/11 03:58:15;;;;;;;125.20;15.52;;;-0.40;99.90;;;;;;4949760;28;20140;-65
2022/01/11 04:00:42;;;;;;;140.88;16.10;;;-0.30;99.90;;;;;;4942171;28;20035;-65
2022/01/11 04:03:08;;;;;;;220.38;19.38;;;-0.30;99.90;;;;;;4961318;28;20050;-65
2022/01/11 04:05:34;;;;;;;177.25;18.25;;;-0.30;99.90;;;;;;4951367;28;20526;-65
2022/01/11 04:08:00;;;;;;;142.30;19.27;;;-0.30;99.90;;;;;;4953665;28;20439;-65
2022/01/11 04:10:26;;;;;;;230.00;19.38;;;-0.20;99.90;;;;;;4952186;28;20086;-65
2022/01/11 04:12:53;;;;;;;225.98;20.08;;;-0.30;99.90;;;;;;4946155;28;20431;-65
2022/01/11 04:15:19;;;;;;;172.93;18.67;;;-0.20;99.90;;;;;;4946113;28;20646;-65
2022/01/11 04:17:45;;;;;;;174.10;18.58;;;-0.20;99.90;;;;;;4947609;28;20505;-65
2022/01/11 04:20:11;;;;;;;153.50;18.70;;;-0.20;99.90;;;;;;4947977;28;20053;-65
2022/01/11 04:22:37;;;;;;;138.00;18.08;;;-0.20;99.90;;;;;;4948210;28;20113;-65
2022/01/11 04:25:04;;;;;;;147.90;17.85;;;-0.20;99.90;;;;;;4930211;29;20126;-65
2022/01/11 04:27:29;;;;;;;146.43;17.73;;;-0.30;99.90;;;;;;4946864;28;20190;-65
2022/01/11 04:29:55;;;;;;;109.75;17.63;;;-0.30;99.90;;;;;;4947754;28;20122;-65
2022/01/11 04:32:21;;;;;;;115.70;17.58;;;-0.30;99.90;;;;;;4948025;28;20482;-65
2022/01/11 04:34:47;;;;;;;133.40;16.85;;;-0.30;99.90;;;;;;4929680;29;20084;-66
2022/01/11 04:37:12;;;;;;;101.93;16.70;;;-0.20;99.90;;;;;;4947529;29;20062;-65
2022/01/11 04:39:38;;;;;;;144.68;17.75;;;-0.20;99.90;;;;;;4948013;28;20550;-65
2022/01/11 04:42:04;;;;;;;109.28;15.65;;;-0.20;99.90;;;;;;4950079;28;20475;-65
2022/01/11 04:44:30;;;;;;;121.80;17.00;;;-0.30;99.90;;;;;;4952247;28;20134;-65
2022/01/11 04:46:56;;;;;;;137.80;16.95;;;-0.30;99.90;;;;;;4963554;28;20181;-65
2022/01/11 04:49:22;;;;;;;129.75;16.42;;;-0.30;99.90;;;;;;4951779;28;20200;-65
2022/01/11 04:51:47;;;;;;;112.78;15.68;;;-0.30;99.90;;;;;;4951461;28;20215;-65
2022/01/11 04:54:13;;;;;;;117.55;17.17;;;-0.40;99.90;;;;;;4949695;28;20051;-65
2022/01/11 04:56:39;;;;;;;87.95;17.33;;;-0.30;99.90;;;;;;4949561;28;20047;-66
2022/01/11 04:59:05;;;;;;;121.75;17.75;;;-0.40;99.90;;;;;;4933362;29;20051;-65
2022/01/11 05:01:31;;;;;;;115.95;15.85;;;-0.30;99.90;;;;;;4934696;29;20482;-65
2022/01/11 05:03:57;;;;;;;131.57;17.88;;;-0.30;99.90;;;;;;4951227;28;20055;-65
2022/01/11 05:06:23;;;;;;;78.70;16.83;;;-0.30;99.90;;;;;;4952125;28;20050;-65
2022/01/11 05:08:49;;;;;;;115.57;17.40;;;-0.30;99.90;;;;;;4950788;28;20414;-66
2022/01/11 05:11:16;;;;;;;88.53;16.58;;;-0.20;99.90;;;;;;4936341;28;20050;-65
2022/01/11 05:13:42;;;;;;;163.32;17.90;;;-0.20;99.90;;;;;;4950815;29;20053;-65
2022/01/11 05:16:09;;;;;;;93.32;16.80;;;-0.20;99.90;;;;;;4950687;28;20130;-65
2022/01/11 05:18:36;;;;;;;81.10;18.50;;;-0.20;99.90;;;;;;4936188;28;20043;-65
2022/01/11 05:21:04;;;;;;;136.38;19.13;;;-0.20;99.90;;;;;;4937467;29;20494;-65
2022/01/11 05:23:30;;;;;;;59.90;16.42;;;-0.10;99.90;;;;;;4951085;29;20370;-65
2022/01/11 05:25:57;;;;;;;71.05;15.13;;;-0.10;99.90;;;;;;4933516;29;20083;-65
2022/01/11 05:28:23;;;;;;;84.38;17.85;;;-0.10;99.90;;;;;;4917394;29;20043;-65
2022/01/11 05:30:49;;;;;;;99.25;18.73;;;-0.10;99.90;;;;;;4951291;28;20054;-65
2022/01/11 05:33:15;;;;;;;85.13;18.35;;;-0.10;99.90;;;;;;4967468;28;20039;-65
2022/01/11 05:35:40;;;;;;;109.50;17.48;;;0.00;99.90;;;;;;4960460;28;20105;-65
2022/01/11 05:38:07;;;;;;;62.30;17.63;;;-0.10;99.90;;;;;;4950413;28;20505;-65
2022/01/11 05:40:33;;;;;;;68.93;19.00;;;-0.10;99.90;;;;;;4950558;28;20047;-65
2022/01/11 05:42:58;;;;;;;77.65;18.90;;;-0.10;99.90;;;;;;4951571;28;20126;-65
2022/01/11 05:45:25;;;;;;;44.75;14.88;;;-0.10;99.90;;;;;;4933360;29;20121;-65
2022/01/11 05:47:53;;;;;;;87.95;19.52;;;-0.10;99.90;;;;;;4950554;28;20054;-65
2022/01/11 05:50:21;;;;;;;77.40;17.02;;;-0.10;99.90;;;;;;4950228;28;20438;-65
2022/01/11 05:52:49;;;;;;;50.58;15.57;;;-0.10;99.90;;;;;;4949797;28;20042;-65
2022/01/11 05:55:15;;;;;;;55.70;18.25;;;-0.10;99.90;;;;;;4933166;28;20051;-65
2022/01/11 05:57:42;;;;;;;82.28;19.60;;;0.00;99.90;;;;;;4933406;29;20114;-65
2022/01/11 06:00:13;;;;;;;65.88;18.33;;;0.00;99.90;;;;;;4950242;28;20137;-65
2022/01/11 06:02:41;;;;;;;52.72;17.95;;;0.00;99.90;;;;;;4937960;28;20054;-65
2022/01/11 06:05:08;;;;;;;77.90;17.90;;;-0.10;99.90;;;;;;4955577;28;20477;-65
2022/01/11 06:07:34;;;;;;;51.38;16.88;;;-0.10;99.90;;;;;;4950003;28;20051;-65
2022/01/11 06:10:00;;;;;;;95.22;19.08;;;-0.10;99.90;;;;;;4950448;28;20445;-66
2022/01/11 06:12:26;;;;;;;67.93;18.75;;;-0.10;99.90;;;;;;4949465;28;20061;-65
2022/01/11 06:14:52;;;;;;;62.47;18.48;;;-0.20;99.90;;;;;;4961590;28;20047;-65
2022/01/11 06:17:18;;;;;;;81.70;20.23;;;-0.20;99.90;;;;;;4932042;29;20055;-65
2022/01/11 06:19:43;;;;;;;77.97;19.02;;;-0.20;99.90;;;;;;4933021;29;20119;-66
2022/01/11 06:22:09;;;;;;;104.38;20.60;;;-0.20;99.90;;;;;;4950230;28;20062;-65
2022/01/11 06:24:35;;;;;;;88.20;18.77;;;-0.20;99.90;;;;;;4949230;28;20062;-65
2022/01/11 06:27:01;;;;;;;102.07;21.55;;;-0.20;99.90;;;;;;4932697;29;20134;-65
2022/01/11 06:29:26;;;;;;;95.60;22.40;;;-0.20;99.90;;;;;;4949306;28;20449;-65
2022/01/11 06:31:52;;;;;;;130.38;22.27;;;-0.20;99.90;;;;;;4948913;28;20054;-65
2022/01/11 06:34:18;;;;;;;105.20;21.00;;;-0.10;99.90;;;;;;4948874;28;20461;-65
2022/01/11 06:36:44;;;;;;;171.63;23.50;;;-0.20;99.90;;;;;;4950222;28;20070;-65
2022/01/11 06:39:09;;;;;;;178.20;24.85;;;-0.10;99.90;;;;;;4949811;28;20062;-65
2022/01/11 06:41:35;;;;;;;167.52;23.55;;;-0.10;99.90;;;;;;4949709;28;20060;-65
2022/01/11 06:44:01;;;;;;;162.25;23.67;;;-0.10;99.90;;;;;;4949732;28;20079;-65
2022/01/11 06:46:28;;;;;;;164.38;24.35;;;-0.10;99.90;;;;;;4931922;29;20371;-65
2022/01/11 06:48:57;;;;;;;194.85;23.95;;;-0.10;99.90;;;;;;4931975;29;20062;-65
2022/01/11 06:51:23;;;;;;;187.45;24.27;;;-0.10;99.90;;;;;;4949226;28;20067;-65
2022/01/11 06:53:48;;;;;;;186.32;24.73;;;0.00;99.90;;;;;;4948492;28;20406;-65
2022/01/11 06:56:16;;;;;;;223.50;24.33;;;-0.10;99.90;;;;;;4957169;28;20123;-65
2022/01/11 06:58:42;;;;;;;181.63;23.45;;;0.00;99.90;;;;;;4933965;29;20175;-65
2022/01/11 07:01:08;;;;;;;207.15;27.00;;;0.00;99.90;;;;;;4932134;28;20130;-65
2022/01/11 07:03:34;;;;;;;204.20;24.70;;;0.00;99.90;;;;;;4947544;28;20046;-65
2022/01/11 07:05:59;;;;;;;182.15;23.27;;;0.00;99.90;;;;;;4950907;28;20166;-65
2022/01/11 07:08:25;;;;;;;185.35;22.38;;;0.00;99.90;;;;;;4931476;29;20133;-65
2022/01/11 07:10:52;;;;;;;130.55;19.38;;;0.00;99.90;;;;;;4949039;28;20129;-65
2022/01/11 07:13:18;;;;;;;147.90;20.48;;;0.00;99.90;;;;;;4930473;28;20118;-65
2022/01/11 07:15:44;;;;;;;99.45;18.38;;;-0.10;99.90;;;;;;4951216;28;20191;-65
2022/01/11 07:18:10;;;;;;;125.80;19.73;;;-0.10;99.90;;;;;;4902989;28;20081;-65
2022/01/11 07:20:38;;;;;;;141.05;20.60;;;-0.10;99.90;;;;;;4936384;28;20513;-65
2022/01/11 07:23:04;;;;;;;161.80;24.10;;;-0.10;99.90;;;;;;4930445;29;20043;-65
2022/01/11 07:25:32;;;;;;;182.50;23.70;;;-0.10;99.90;;;;;;4937003;28;20444;-66
2022/01/11 07:28:02;;;;;;;201.40;24.33;;;-0.10;99.90;;;;;;4958865;28;20050;-65
2022/01/11 07:30:28;;;;;;;146.47;24.60;;;0.00;99.90;;;;;;4950749;28;20046;-65
2022/01/11 07:32:54;;;;;;;144.32;22.52;;;0.00;99.90;;;;;;4952643;28;20782;-65
2022/01/11 07:35:23;;;;;;;118.82;23.85;;;0.00;99.90;;;;;;4943103;29;20525;-65
2022/01/11 07:37:50;;;;;;;108.80;23.90;;;0.00;99.90;;;;;;4953867;28;20153;-65
2022/01/11 07:40:15;;;;;;;96.30;24.65;;;0.10;99.90;;;;;;4958164;28;20792;-65
2022/01/11 07:42:41;;;;;;;98.75;25.33;;;0.10;99.90;;;;;;4949968;28;20251;-65
2022/01/11 07:45:07;;;;;;;92.13;26.10;;;0.10;99.90;;;;;;4930934;29;20046;-65
2022/01/11 07:47:33;;;;;;;117.20;25.88;;;0.20;99.90;;;;;;4933881;28;20043;-65
2022/01/11 07:49:59;;;;;;;117.57;28.02;;;0.20;99.90;;;;;;4954301;28;20054;-65
2022/01/11 07:52:25;;;;;;;95.22;25.63;;;0.20;99.90;;;;;;4964846;28;20050;-65
2022/01/11 07:54:52;;;;;;;102.32;27.30;;;0.30;99.90;;;;;;4958491;28;20050;-65
2022/01/11 07:57:18;;;;;;;125.97;28.77;;;0.30;99.90;;;;;;4962794;28;20051;-65
2022/01/11 07:59:44;;;;;;;76.43;22.67;;;0.30;99.90;;;;;;4933072;28;20530;-65
2022/01/11 08:02:12;;;;;;;100.07;25.75;;;0.30;99.90;;;;;;4940684;28;20047;-65
2022/01/11 08:04:37;;;;;;;83.95;25.25;;;0.30;99.90;;;;;;4942733;28;20118;-65
2022/01/11 08:07:03;;;;;;;82.50;24.48;;;0.30;99.90;;;;;;4937416;28;20143;-65
2022/01/11 08:09:29;;;;;;;80.60;26.40;;;0.30;99.90;;;;;;4936265;28;20492;-65
2022/01/11 08:11:58;;;;;;;112.63;27.05;;;0.30;99.90;;;;;;4939386;28;20047;-65
2022/01/11 08:14:26;;;;;;;46.83;18.02;;;0.40;99.90;;;;;;4927756;28;20056;-65
2022/01/11 08:16:52;;;;;;;82.40;24.92;;;0.40;99.90;;;;;;4935767;29;20075;-65
2022/01/11 08:19:24;;;;;;;73.50;25.48;;;0.30;99.90;;;;;;4943311;28;20543;-65
2022/01/11 08:21:55;;;;;;;64.43;20.17;;;0.40;99.90;;;;;;4948668;28;20058;-65
2022/01/11 08:24:24;;;;;;;66.38;23.10;;;0.40;99.90;;;;;;4946393;28;20055;-65
2022/01/11 08:26:50;;;;;;;74.10;22.17;;;0.50;99.90;;;;;;4932752;28;20059;-65
2022/01/11 08:29:18;;;;;;;91.60;24.90;;;0.50;99.90;;;;;;4935981;28;20441;-65
2022/01/11 08:31:48;;;;;;;81.07;26.10;;;0.60;99.90;;;;;;4943041;28;20645;-65
2022/01/11 08:34:14;;;;;;;60.90;21.42;;;0.60;99.90;;;;;;4927697;29;20039;-65
2022/01/11 08:36:42;;;;;;;66.65;23.40;;;0.60;99.90;;;;;;4950261;28;20089;-65
2022/01/11 08:39:09;;;;;;;75.30;25.90;;;0.60;99.90;;;;;;4955188;28;20039;-65
2022/01/11 08:41:35;;;;;;;65.50;23.70;;;0.60;99.90;;;;;;4946440;28;20087;-65
2022/01/11 08:44:00;;;;;;;69.88;23.02;;;0.70;99.90;;;;;;4958565;28;20047;-65
2022/01/11 08:46:26;;;;;;;55.78;21.90;;;0.70;99.90;;;;;;4952166;28;20101;-65
2022/01/11 08:48:52;;;;;;;50.70;20.38;;;0.70;99.90;;;;;;5012092;23;20051;-65
2022/01/11 08:51:18;;;;;;;42.42;17.75;;;0.70;99.90;;;;;;4927201;28;20146;-65
2022/01/11 08:53:44;;;;;;;62.92;24.05;;;0.70;99.90;;;;;;4931660;29;20051;-65
2022/01/11 08:56:11;;;;;;;61.10;23.60;;;0.70;99.90;;;;;;4937610;28;20047;-65
2022/01/11 08:58:37;;;;;;;59.10;22.35;;;0.70;99.90;;;;;;4953930;28;20177;-65
2022/01/11 09:01:03;;;;;;;56.55;20.13;;;0.70;99.90;;;;;;4939433;28;20477;-65
2022/01/11 09:03:28;;;;;;;71.63;24.08;;;0.70;99.90;;;;;;4928103;28;20035;-65
2022/01/11 09:05:54;;;;;;;54.45;22.98;;;0.70;99.90;;;;;;4954820;28;20397;-65
2022/01/11 09:08:20;;;;;;;59.22;21.60;;;0.70;99.90;;;;;;4953787;28;20105;-65
2022/01/11 09:10:46;;;;;;;40.47;17.20;;;0.60;99.90;;;;;;4954922;28;20071;-65
2022/01/11 09:13:13;;;;;;;60.47;22.30;;;0.60;99.90;;;;;;4934344;29;20036;-65
2022/01/11 09:15:39;;;;;;;60.60;23.13;;;0.70;99.90;;;;;;4963177;28;20405;-65
2022/01/11 09:18:05;;;;;;;61.20;22.50;;;0.60;99.90;;;;;;4944449;29;20043;-65
2022/01/11 09:20:31;;;;;;;48.80;20.67;;;0.60;99.90;;;;;;4934074;28;20098;-65
2022/01/11 09:22:57;;;;;;;57.15;21.70;;;0.70;99.90;;;;;;4911763;29;20548;-65
2022/01/11 09:25:23;;;;;;;61.70;21.70;;;0.70;99.90;;;;;;4915523;29;20047;-65
2022/01/11 09:27:48;;;;;;;48.20;19.17;;;0.70;99.90;;;;;;4914440;28;20493;-65
2022/01/11 09:30:15;;;;;;;43.78;19.52;;;0.70;99.90;;;;;;4934823;28;20402;-65
2022/01/11 09:32:41;;;;;;;46.50;19.58;;;0.70;99.90;;;;;;4920658;28;20044;-65
2022/01/11 09:35:10;;;;;;;54.45;19.05;;;0.70;99.90;;;;;;4939805;28;20129;-65
2022/01/11 09:37:38;;;;;;;47.08;18.15;;;0.70;99.90;;;;;;4920692;29;20119;-65
2022/01/11 09:40:07;;;;;;;45.30;19.52;;;0.70;99.90;;;;;;4941888;28;20098;-65
2022/01/11 09:42:33;;;;;;;39.13;15.00;;;0.80;99.90;;;;;;4951890;28;20381;-65
2022/01/11 09:45:00;;;;;;;41.67;14.77;;;0.80;99.90;;;;;;4956526;28;20497;-65
2022/01/11 09:47:26;;;;;;;40.30;14.30;;;0.80;99.90;;;;;;4962152;28;20058;-65
2022/01/11 09:49:52;;;;;;;37.65;16.27;;;0.80;99.90;;;;;;4938079;28;20043;-65
2022/01/11 09:52:18;;;;;;;24.13;10.85;;;0.80;99.90;;;;;;4964749;28;20527;-65
2022/01/11 09:54:47;;;;;;;37.90;13.80;;;0.80;99.90;;;;;;4940317;29;20083;-65
2022/01/11 09:57:13;;;;;;;24.98;8.82;;;0.80;99.90;;;;;;4950781;28;20046;-65
2022/01/11 09:59:40;;;;;;;40.38;16.23;;;0.80;99.90;;;;;;4949914;28;20039;-65
2022/01/11 10:02:06;;;;;;;33.90;15.85;;;0.80;99.90;;;;;;4931627;29;20122;-65
2022/01/11 10:04:39;;;;;;;24.52;9.15;;;0.80;99.90;;;;;;4952881;28;20537;-65
2022/01/11 10:07:09;;;;;;;41.65;17.58;;;0.80;99.90;;;;;;4952387;28;20059;-65
2022/01/11 10:09:49;;;;;;;25.85;12.10;;;0.90;99.90;;;;;;4952879;28;20054;-65
2022/01/11 10:12:18;;;;;;;34.65;14.13;;;0.90;99.90;;;;;;4948148;29;20043;-65
2022/01/11 10:14:51;;;;;;;26.83;12.93;;;0.90;99.90;;;;;;4942455;28;20070;-65
2022/01/11 10:17:27;;;;;;;40.92;17.30;;;0.90;99.90;;;;;;4923693;28;20121;-65
2022/01/11 10:20:13;;;;;;;38.65;15.65;;;0.90;99.90;;;;;;4930174;29;20039;-65
2022/01/11 10:22:46;;;;;;;40.90;17.65;;;0.90;99.90;;;;;;4950870;28;20482;-65
2022/01/11 10:25:11;;;;;;;40.40;16.75;;;1.00;99.90;;;;;;4938707;29;20047;-65
2022/01/11 10:27:37;;;;;;;35.05;14.52;;;1.00;99.90;;;;;;4939925;28;20121;-65
2022/01/11 10:30:11;;;;;;;45.47;17.92;;;1.00;99.90;;;;;;4936607;28;20098;-66
2022/01/11 10:32:45;;;;;;;35.42;15.57;;;1.10;99.90;;;;;;4956501;28;20454;-65
2022/01/11 10:35:15;;;;;;;38.70;15.93;;;1.10;99.90;;;;;;4944947;28;20114;-65
2022/01/11 10:37:44;;;;;;;30.83;14.93;;;1.10;99.90;;;;;;4949712;28;20043;-65
2022/01/11 10:40:09;;;;;;;18.40;10.07;;;1.20;99.90;;;;;;4933857;29;20047;-65
2022/01/11 10:42:39;;;;;;;36.15;15.77;;;1.10;99.90;;;;;;4932366;29;20051;-65
2022/01/11 10:45:12;;;;;;;36.05;16.70;;;1.10;99.90;;;;;;4929576;28;20101;-65
2022/01/11 10:47:41;;;;;;;34.30;14.68;;;1.10;99.90;;;;;;4949937;28;20051;-65
2022/01/11 10:50:12;;;;;;;39.88;16.27;;;1.10;99.90;;;;;;4950686;28;20059;-65
2022/01/11 10:52:39;;;;;;;36.85;14.48;;;1.10;99.90;;;;;;4943839;28;20586;-64
2022/01/11 10:55:07;;;;;;;41.92;17.63;;;1.20;99.90;;;;;;4938454;28;20047;-65
2022/01/11 10:57:37;;;;;;;39.58;18.10;;;1.30;99.90;;;;;;4953446;28;20049;-65
2022/01/11 11:00:08;;;;;;;41.45;16.30;;;1.40;99.90;;;;;;4957244;28;20054;-65
2022/01/11 11:02:35;;;;;;;38.67;15.02;;;1.50;99.90;;;;;;4956728;28;20109;-65
2022/01/11 11:05:20;;;;;;;33.22;13.85;;;1.70;99.90;;;;;;4959846;28;20056;-65
2022/01/11 11:08:06;;;;;;;38.03;17.58;;;1.80;99.90;;;;;;4956544;28;20402;-65
2022/01/11 11:10:38;;;;;;;21.60;8.82;;;1.90;99.90;;;;;;4932534;29;20043;-65
2022/01/11 11:13:06;;;;;;;19.48;9.63;;;2.00;99.90;;;;;;4947558;28;20051;-65
2022/01/11 11:15:37;;;;;;;36.70;14.82;;;2.10;99.90;;;;;;4935548;29;20098;-66
2022/01/11 11:18:06;;;;;;;7.70;5.03;;;2.10;99.90;;;;;;4931422;29;20057;-65
2022/01/11 11:20:34;;;;;;;39.47;14.95;;;2.10;99.90;;;;;;4949105;28;20118;-65
2022/01/11 11:23:02;;;;;;;35.40;14.70;;;2.10;99.90;;;;;;4934552;28;20400;-65
2022/01/11 11:25:28;;;;;;;17.33;8.68;;;2.20;99.90;;;;;;4933647;29;20114;-65
2022/01/11 11:27:55;;;;;;;16.70;9.10;;;2.20;99.90;;;;;;4933094;28;20043;-65
2022/01/11 11:30:21;;;;;;;30.10;13.98;;;2.20;99.90;;;;;;4950228;28;20043;-65
2022/01/11 11:32:51;;;;;;;25.52;13.95;;;2.20;99.90;;;;;;4952235;28;20498;-65
2022/01/11 11:35:17;;;;;;;27.27;14.35;;;2.10;99.90;;;;;;4947183;28;20078;-65
2022/01/11 11:37:46;;;;;;;18.33;9.43;;;2.10;99.90;;;;;;4948464;28;20051;-65
2022/01/11 11:40:34;;;;;;;29.17;12.77;;;2.20;99.90;;;;;;4949395;28;20075;-65
2022/01/11 11:43:02;;;;;;;34.53;15.52;;;2.20;99.90;;;;;;4950770;28;20082;-65
2022/01/11 11:45:39;;;;;;;27.55;11.73;;;2.20;99.90;;;;;;4950747;28;20047;-65
2022/01/11 11:48:08;;;;;;;27.55;13.50;;;2.30;99.90;;;;;;4948980;28;20047;-65
2022/01/11 11:50:46;;;;;;;25.35;10.52;;;2.40;99.90;;;;;;4948307;28;20047;-65
2022/01/11 11:53:38;;;;;;;32.85;14.98;;;2.50;99.90;;;;;;4948946;28;20047;-65
2022/01/11 11:56:25;;;;;;;30.30;14.25;;;2.50;99.90;;;;;;4930021;29;20055;-65
2022/01/11 11:58:55;;;;;;;26.90;11.95;;;2.70;99.90;;;;;;4950940;28;20078;-65
2022/01/11 12:01:45;;;;;;;42.97;16.40;;;2.70;99.90;;;;;;4931710;29;20790;-65
2022/01/11 12:04:15;;;;;;;30.23;14.60;;;2.80;99.90;;;;;;4947265;28;20055;-65
2022/01/11 12:06:42;;;;;;;33.05;15.55;;;2.80;99.90;;;;;;4948390;28;20043;-65
2022/01/11 12:09:11;;;;;;;32.42;15.48;;;3.00;99.90;;;;;;4948160;28;20495;-65
2022/01/11 12:11:43;;;;;;;43.37;14.03;;;3.00;99.90;;;;;;4932752;29;20398;-65
2022/01/11 12:14:27;;;;;;;33.22;13.18;;;3.00;99.90;;;;;;4932712;28;20063;-65
2022/01/11 12:16:53;;;;;;;26.15;13.10;;;3.10;99.90;;;;;;4948145;28;20529;-66
2022/01/11 12:19:38;;;;;;;28.23;14.45;;;3.10;99.90;;;;;;4948674;28;20082;-65
2022/01/11 12:22:06;;;;;;;39.45;15.07;;;3.20;99.90;;;;;;4948285;28;20094;-65
2022/01/11 12:24:46;;;;;;;30.85;13.63;;;3.20;99.90;;;;;;4945962;28;20039;-65
2022/01/11 12:27:15;;;;;;;35.50;16.05;;;3.20;99.90;;;;;;4941942;29;20043;-65
2022/01/11 12:30:06;;;;;;;29.48;12.90;;;3.20;99.90;;;;;;4956384;28;20046;-65
2022/01/11 12:32:36;;;;;;;27.58;13.60;;;3.20;99.90;;;;;;4950547;28;20039;-65
2022/01/11 12:35:08;;;;;;;;;;;3.20;99.90;;;;;;4933779;28;20047;-65
2022/01/11 12:37:45;;;;;;;24.20;12.77;;;3.20;99.90;;;;;;4951458;28;20021;-65